Time;durP1;ratioP1;P1;durP2;ratioP2;P2;SDS_P1;SDS_P2;PMS_P1;PMS_P2;Temp;Humidity;BMP_temperature;BMP_pressure;BME280_temperature;BME280_humidity;BME280_pressure;Samples;Min_cycle;Max_cycle;Signal;HPM_P1;HPM_P2
2022/05/24 00:01:19;;;;;;;7.28;4.00;;;14.30;99.90;;;;;;5059723;28;20044;-71
2022/05/24 00:03:45;;;;;;;10.88;3.67;;;14.20;99.90;;;;;;5057680;28;20040;-70
2022/05/24 00:06:11;;;;;;;5.88;3.10;;;14.20;99.90;;;;;;5061867;28;20127;-70
2022/05/24 00:08:37;;;;;;;7.03;3.60;;;14.20;99.90;;;;;;5060707;28;20049;-70
2022/05/24 00:11:03;;;;;;;3.33;3.00;;;14.10;99.90;;;;;;5061342;28;20053;-70
2022/05/24 00:13:28;;;;;;;6.00;4.25;;;14.20;99.90;;;;;;5058824;28;20616;-71
2022/05/24 00:15:54;;;;;;;8.77;3.85;;;14.10;99.90;;;;;;5060648;28;20068;-71
2022/05/24 00:18:23;;;;;;;6.03;3.45;;;14.10;99.90;;;;;;5059294;28;20044;-70
2022/05/24 00:21:01;;;;;;;6.97;3.45;;;14.10;99.90;;;;;;5067666;28;20040;-70
2022/05/24 00:23:28;;;;;;;6.53;3.83;;;14.10;99.90;;;;;;5064120;28;20035;-70
2022/05/24 00:26:07;;;;;;;5.00;3.20;;;14.00;99.90;;;;;;5063809;28;20058;-70
2022/05/24 00:28:34;;;;;;;5.15;3.30;;;14.00;99.90;;;;;;5062299;28;20048;-71
2022/05/24 00:31:01;;;;;;;6.93;3.58;;;14.00;99.90;;;;;;5061780;28;20072;-70
2022/05/24 00:33:26;;;;;;;8.43;4.07;;;14.00;99.90;;;;;;5064514;28;20453;-70
2022/05/24 00:35:53;;;;;;;5.28;3.17;;;14.00;99.90;;;;;;5062363;28;20068;-71
2022/05/24 00:38:39;;;;;;;4.93;2.72;;;14.00;99.90;;;;;;5067074;28;20043;-71
2022/05/24 00:41:44;;;;;;;5.75;2.90;;;14.00;99.90;;;;;;5066101;28;20037;-71
2022/05/24 00:44:29;;;;;;;6.53;3.10;;;13.90;99.90;;;;;;5043120;28;20650;-70
2022/05/24 00:47:00;;;;;;;4.47;2.97;;;13.90;99.90;;;;;;5062531;28;20040;-71
2022/05/24 00:49:46;;;;;;;7.57;2.80;;;13.90;99.90;;;;;;5064755;28;20055;-70
2022/05/24 00:52:43;;;;;;;6.90;2.70;;;13.90;99.90;;;;;;5067435;28;20040;-71
2022/05/24 00:55:12;;;;;;;4.65;2.33;;;13.90;99.90;;;;;;5062121;28;20052;-71
2022/05/24 00:57:46;;;;;;;4.72;2.58;;;13.80;99.90;;;;;;5062367;28;20441;-70
2022/05/24 01:00:21;;;;;;;5.67;2.83;;;13.80;99.90;;;;;;5063762;28;20106;-71
2022/05/24 01:02:48;;;;;;;4.82;2.65;;;13.90;99.90;;;;;;5061748;28;20052;-71
2022/05/24 01:05:28;;;;;;;7.50;2.83;;;13.80;99.90;;;;;;5062290;28;20028;-71
2022/05/24 01:07:54;;;;;;;2.88;2.65;;;13.80;99.90;;;;;;5060130;28;20118;-71
2022/05/24 01:10:32;;;;;;;7.60;2.90;;;13.70;99.90;;;;;;5062862;28;20532;-71
2022/05/24 01:13:03;;;;;;;5.22;2.63;;;13.80;99.90;;;;;;5060962;28;20106;-71
2022/05/24 01:15:30;;;;;;;4.97;2.90;;;13.70;99.90;;;;;;5062316;28;20040;-71
2022/05/24 01:17:57;;;;;;;5.70;2.80;;;13.70;99.90;;;;;;5062154;28;20028;-71
2022/05/24 01:20:23;;;;;;;4.68;2.88;;;13.70;99.90;;;;;;5061214;28;20137;-70
2022/05/24 01:23:22;;;;;;;3.80;2.20;;;13.60;99.90;;;;;;5046327;28;20107;-71
2022/05/24 01:26:10;;;;;;;3.58;2.90;;;13.60;99.90;;;;;;5061698;28;20040;-71
2022/05/24 01:28:51;;;;;;;4.57;3.13;;;13.60;99.90;;;;;;5059684;28;20048;-71
2022/05/24 01:31:18;;;;;;;10.15;4.60;;;13.60;99.90;;;;;;5062126;28;20060;-71
2022/05/24 01:36:33;;;;;;;7.95;6.38;;;13.60;99.90;;;;;;5060919;28;20045;-70
2022/05/24 01:39:01;;;;;;;11.45;7.15;;;13.60;99.90;;;;;;5062008;28;20535;-71
2022/05/24 01:41:37;;;;;;;8.50;7.07;;;13.60;99.90;;;;;;5065147;28;20045;-70
2022/05/24 01:44:03;;;;;;;20.55;9.15;;;13.60;99.90;;;;;;5060542;28;20283;-70
2022/05/24 01:46:40;;;;;;;10.43;8.38;;;13.60;99.90;;;;;;5066134;28;20446;-71
2022/05/24 01:49:15;;;;;;;9.18;7.57;;;13.60;99.90;;;;;;5094426;28;20059;-70
2022/05/24 01:51:47;;;;;;;12.95;8.48;;;13.60;99.90;;;;;;5065642;28;20811;-71
2022/05/24 01:54:14;;;;;;;11.93;9.23;;;13.60;99.90;;;;;;5048644;28;20510;-70
2022/05/24 01:56:51;;;;;;;10.57;9.40;;;13.60;99.90;;;;;;5061787;28;20197;-71
2022/05/24 01:59:19;;;;;;;10.43;8.98;;;13.60;99.90;;;;;;5058996;28;20492;-71
2022/05/24 02:01:50;;;;;;;12.73;9.93;;;13.60;99.90;;;;;;5060479;28;20162;-71
2022/05/24 02:04:18;;;;;;;12.73;9.73;;;13.60;99.90;;;;;;5062557;28;21101;-71
2022/05/24 02:06:44;;;;;;;12.68;9.60;;;13.60;99.90;;;;;;5046152;28;20036;-70
2022/05/24 02:09:11;;;;;;;15.95;10.52;;;13.60;99.90;;;;;;5062906;28;20043;-70
2022/05/24 02:11:37;;;;;;;12.63;11.05;;;13.60;99.90;;;;;;5059183;28;20040;-70
2022/05/24 02:14:07;;;;;;;12.18;10.98;;;13.60;99.90;;;;;;5060990;28;20517;-70
2022/05/24 02:16:37;;;;;;;11.32;10.25;;;13.60;99.90;;;;;;5090304;28;20047;-70
2022/05/24 02:19:05;;;;;;;17.77;11.45;;;13.60;99.90;;;;;;5060874;28;20559;-70
2022/05/24 02:21:31;;;;;;;13.27;11.88;;;13.60;99.90;;;;;;5090293;28;20499;-70
2022/05/24 02:23:57;;;;;;;13.23;11.70;;;13.70;99.90;;;;;;5063093;28;20035;-70
2022/05/24 02:26:28;;;;;;;12.82;11.23;;;13.60;99.90;;;;;;5059397;28;20131;-71
2022/05/24 02:28:54;;;;;;;12.80;11.60;;;13.70;99.90;;;;;;5065962;28;20486;-71
2022/05/24 02:31:22;;;;;;;13.40;12.07;;;13.60;99.90;;;;;;5062057;28;20048;-71
2022/05/24 02:33:48;;;;;;;13.02;11.73;;;13.70;99.90;;;;;;5061834;28;20040;-71
2022/05/24 02:36:15;;;;;;;17.58;13.43;;;13.70;99.90;;;;;;5061762;28;20061;-71
2022/05/24 02:38:41;;;;;;;13.20;11.88;;;13.60;99.90;;;;;;5061138;28;20032;-71
2022/05/24 02:43:51;;;;;;;15.82;13.85;;;13.70;99.90;;;;;;5054951;28;20080;-71
2022/05/24 02:46:18;;;;;;;19.35;17.13;;;13.70;99.90;;;;;;5063512;28;20517;-70
2022/05/24 02:48:44;;;;;;;21.65;18.55;;;13.70;99.90;;;;;;5062731;28;20041;-71
2022/05/24 02:51:11;;;;;;;26.63;21.25;;;13.70;99.90;;;;;;5063710;28;20029;-71
2022/05/24 02:53:38;;;;;;;23.10;20.45;;;14.20;99.90;;;;;;5064777;28;20144;-71
2022/05/24 02:56:05;;;;;;;25.45;22.45;;;13.80;99.90;;;;;;5060192;28;20044;-71
2022/05/24 02:58:30;;;;;;;26.10;21.95;;;13.80;99.90;;;;;;5061337;28;20155;-71
2022/05/24 03:00:56;;;;;;;29.75;24.13;;;13.80;99.90;;;;;;5059884;28;20120;-71
2022/05/24 03:03:21;;;;;;;26.75;23.88;;;13.80;99.90;;;;;;5061417;28;20040;-71
2022/05/24 03:05:47;;;;;;;27.98;24.95;;;13.90;99.90;;;;;;5061530;28;20063;-71
2022/05/24 03:10:56;;;;;;;29.10;25.95;;;13.80;99.90;;;;;;5060589;28;20049;-71
2022/05/24 03:16:10;;;;;;;29.40;26.30;;;13.80;99.90;;;;;;5061158;28;20041;-71
2022/05/24 03:18:36;;;;;;;33.47;25.08;;;13.80;99.90;;;;;;5057637;28;20051;-71
2022/05/24 03:21:02;;;;;;;32.97;25.90;;;13.80;99.90;;;;;;5059728;28;20040;-71
2022/05/24 03:23:28;;;;;;;28.88;24.83;;;13.80;99.90;;;;;;5057352;28;20367;-71
2022/05/24 03:25:54;;;;;;;30.40;27.10;;;13.90;99.90;;;;;;5057434;28;20086;-71
2022/05/24 03:28:20;;;;;;;28.90;25.90;;;13.90;99.90;;;;;;5058381;28;20036;-71
2022/05/24 03:30:47;;;;;;;31.80;27.35;;;13.90;99.90;;;;;;5059430;28;20067;-71
2022/05/24 03:33:13;;;;;;;35.95;26.75;;;13.90;99.90;;;;;;5060309;28;20036;-71
2022/05/24 03:35:40;;;;;;;30.33;24.90;;;13.90;99.90;;;;;;5059486;28;20047;-71
2022/05/24 03:38:06;;;;;;;27.85;24.08;;;14.00;99.90;;;;;;5060028;28;20041;-71
2022/05/24 03:40:32;;;;;;;26.92;24.15;;;14.00;99.90;;;;;;5058015;28;20379;-71
2022/05/24 03:42:58;;;;;;;27.52;24.10;;;14.00;99.90;;;;;;5059074;28;20866;-71
2022/05/24 03:45:24;;;;;;;25.55;22.83;;;14.00;99.90;;;;;;5062044;28;20032;-71
2022/05/24 03:47:50;;;;;;;25.42;22.80;;;14.00;99.90;;;;;;5058800;28;20029;-71
2022/05/24 03:50:17;;;;;;;23.38;21.02;;;14.00;99.90;;;;;;5091260;28;20548;-71
2022/05/24 03:52:43;;;;;;;22.80;20.60;;;14.00;99.90;;;;;;5060715;28;20044;-71
2022/05/24 03:55:09;;;;;;;24.70;21.17;;;14.10;99.90;;;;;;5057952;28;20055;-71
2022/05/24 04:00:22;;;;;;;23.05;20.70;;;14.10;99.90;;;;;;5055531;28;20044;-71
2022/05/24 04:02:47;;;;;;;24.10;21.58;;;14.10;99.90;;;;;;5057853;28;20039;-71
2022/05/24 04:05:13;;;;;;;20.38;18.42;;;14.10;99.90;;;;;;5056785;28;20476;-71
2022/05/24 04:07:39;;;;;;;23.40;20.90;;;14.10;99.90;;;;;;5061104;28;20032;-70
2022/05/24 04:10:07;;;;;;;20.98;18.77;;;14.10;99.90;;;;;;5093364;28;20036;-71
2022/05/24 04:12:33;;;;;;;22.20;19.23;;;14.10;99.90;;;;;;5089692;28;21673;-71
2022/05/24 04:14:59;;;;;;;27.45;19.75;;;14.10;99.90;;;;;;5058118;28;20065;-71
2022/05/24 04:17:24;;;;;;;22.00;19.60;;;14.20;99.90;;;;;;5058978;28;20064;-71
2022/05/24 04:19:50;;;;;;;19.27;17.20;;;14.20;99.90;;;;;;5057984;28;20044;-71
2022/05/24 04:22:16;;;;;;;20.58;18.50;;;14.20;99.90;;;;;;5092669;28;20171;-71
2022/05/24 04:24:41;;;;;;;22.40;19.40;;;14.20;99.90;;;;;;5060382;28;20527;-71
2022/05/24 04:27:07;;;;;;;20.02;17.33;;;14.20;99.90;;;;;;5054826;28;20084;-72
2022/05/24 04:29:33;;;;;;;18.75;16.83;;;14.20;99.90;;;;;;5059955;28;20029;-71
2022/05/24 04:31:59;;;;;;;19.10;17.10;;;14.30;99.90;;;;;;5055746;28;20082;-71
2022/05/24 04:34:25;;;;;;;21.30;17.17;;;14.20;99.90;;;;;;5056256;28;20049;-71
2022/05/24 04:36:50;;;;;;;23.20;16.77;;;14.30;99.90;;;;;;5057163;28;20053;-71
2022/05/24 04:39:17;;;;;;;17.95;16.05;;;14.30;99.90;;;;;;5057928;28;20033;-71
2022/05/24 04:44:27;;;;;;;19.70;16.48;;;14.40;99.90;;;;;;5057723;28;20049;-71
2022/05/24 04:47:08;;;;;;;26.73;17.10;;;14.40;99.90;;;;;;5062009;28;20032;-71
2022/05/24 04:49:40;;;;;;;20.20;16.45;;;14.40;99.90;;;;;;5059024;28;20068;-71
2022/05/24 04:52:07;;;;;;;21.88;18.83;;;14.40;99.90;;;;;;5055943;28;20040;-71
2022/05/24 04:54:33;;;;;;;26.75;19.33;;;14.30;99.90;;;;;;5088933;28;20041;-71
2022/05/24 04:56:59;;;;;;;26.13;19.92;;;14.30;99.90;;;;;;5058130;28;20036;-71
2022/05/24 04:59:25;;;;;;;22.73;19.65;;;14.30;99.90;;;;;;5061205;28;20055;-70
2022/05/24 05:01:51;;;;;;;26.83;21.40;;;14.30;99.90;;;;;;5057855;28;20079;-71
2022/05/24 05:04:20;;;;;;;25.67;21.02;;;14.30;99.90;;;;;;5042788;28;20117;-71
2022/05/24 05:06:46;;;;;;;22.40;19.90;;;14.30;99.90;;;;;;5062253;28;20048;-71
2022/05/24 05:09:13;;;;;;;25.75;20.80;;;14.30;99.90;;;;;;5066045;28;20076;-71
2022/05/24 05:11:39;;;;;;;26.02;19.27;;;14.30;99.90;;;;;;5060841;28;20041;-71
2022/05/24 05:14:06;;;;;;;22.67;16.95;;;14.30;99.90;;;;;;5095415;28;20101;-71
2022/05/24 05:16:32;;;;;;;22.02;15.73;;;14.20;99.90;;;;;;5059626;28;20041;-70
2022/05/24 05:18:58;;;;;;;19.85;16.20;;;14.20;99.90;;;;;;5063024;28;20479;-70
2022/05/24 05:21:27;;;;;;;23.02;17.75;;;14.20;99.90;;;;;;5062855;28;20036;-71
2022/05/24 05:23:53;;;;;;;27.73;17.75;;;14.20;99.90;;;;;;5060873;28;20123;-71
2022/05/24 05:26:18;;;;;;;26.27;18.95;;;14.20;99.90;;;;;;5061891;28;20131;-71
2022/05/24 05:28:44;;;;;;;26.73;20.95;;;14.20;99.90;;;;;;5061150;28;20131;-71
2022/05/24 05:31:26;;;;;;;23.65;18.70;;;14.20;99.90;;;;;;5061424;28;20036;-71
2022/05/24 05:33:53;;;;;;;23.40;17.83;;;14.20;99.90;;;;;;5064423;28;20040;-71
2022/05/24 05:36:20;;;;;;;20.58;16.67;;;14.20;99.90;;;;;;5061698;28;20383;-71
2022/05/24 05:38:46;;;;;;;17.60;15.43;;;14.20;99.90;;;;;;5060584;28;20160;-71
2022/05/24 05:41:21;;;;;;;18.88;14.45;;;14.10;99.90;;;;;;5068180;28;20147;-71
2022/05/24 05:43:47;;;;;;;20.70;16.13;;;14.10;99.90;;;;;;5093892;28;20495;-71
2022/05/24 05:46:14;;;;;;;33.33;15.35;;;14.10;99.90;;;;;;5058768;28;20024;-71
2022/05/24 05:48:40;;;;;;;23.77;15.57;;;14.10;99.90;;;;;;5080737;28;20036;-71
2022/05/24 05:51:08;;;;;;;20.80;14.70;;;14.10;99.90;;;;;;5061178;28;20131;-71
2022/05/24 05:53:34;;;;;;;21.13;14.45;;;14.10;99.90;;;;;;5063571;28;20090;-71
2022/05/24 05:55:59;;;;;;;22.17;14.18;;;14.10;99.90;;;;;;5060685;28;20036;-71
2022/05/24 05:58:25;;;;;;;21.42;15.00;;;14.10;99.90;;;;;;5016407;28;20043;-71
2022/05/24 06:00:51;;;;;;;18.75;13.20;;;14.10;99.90;;;;;;5062538;28;20040;-71
2022/05/24 06:03:18;;;;;;;19.83;13.23;;;14.10;99.90;;;;;;5047720;28;20048;-71
2022/05/24 06:05:47;;;;;;;19.33;13.35;;;14.10;99.90;;;;;;5056918;28;20075;-71
2022/05/24 06:08:13;;;;;;;19.52;13.63;;;14.10;99.90;;;;;;5046934;28;20037;-71
2022/05/24 06:10:39;;;;;;;21.58;14.27;;;14.20;99.90;;;;;;5061246;28;20054;-71
2022/05/24 06:13:05;;;;;;;22.55;13.13;;;14.40;99.90;;;;;;5058656;28;20128;-71
2022/05/24 06:15:32;;;;;;;18.70;13.00;;;14.50;99.90;;;;;;5093761;28;20603;-71
2022/05/24 06:17:58;;;;;;;18.45;13.30;;;14.50;99.90;;;;;;5063221;28;20033;-71
2022/05/24 06:20:27;;;;;;;17.42;12.60;;;14.50;99.90;;;;;;5058502;28;20375;-71
2022/05/24 06:22:54;;;;;;;18.98;12.25;;;14.50;99.90;;;;;;5091806;28;20032;-71
2022/05/24 06:25:21;;;;;;;20.20;11.32;;;14.50;99.90;;;;;;5066916;28;20530;-71
2022/05/24 06:27:48;;;;;;;17.70;11.90;;;14.50;99.90;;;;;;5058701;28;20063;-71
2022/05/24 06:30:14;;;;;;;16.92;11.50;;;14.50;99.90;;;;;;5059644;28;20041;-71
2022/05/24 06:32:40;;;;;;;16.58;11.77;;;14.50;99.90;;;;;;5059199;28;20556;-71
2022/05/24 06:35:07;;;;;;;15.25;10.57;;;14.50;99.90;;;;;;5060952;28;20040;-70
2022/05/24 06:37:33;;;;;;;17.50;11.77;;;14.50;99.90;;;;;;5060143;28;20479;-71
2022/05/24 06:39:58;;;;;;;23.77;13.13;;;14.40;99.90;;;;;;5060832;28;20203;-71
2022/05/24 06:42:24;;;;;;;19.42;12.35;;;14.40;99.90;;;;;;5090566;28;20123;-71
2022/05/24 06:44:50;;;;;;;16.75;11.40;;;14.40;99.90;;;;;;5063840;28;20048;-71
2022/05/24 06:47:15;;;;;;;19.90;11.50;;;14.40;99.90;;;;;;5062963;28;20516;-71
2022/05/24 06:49:41;;;;;;;20.63;12.30;;;14.50;99.90;;;;;;5057684;28;20071;-71
2022/05/24 06:52:08;;;;;;;19.45;12.77;;;14.40;99.90;;;;;;5064846;28;20451;-71
2022/05/24 06:54:33;;;;;;;15.55;10.48;;;14.40;99.90;;;;;;5059103;28;20391;-71
2022/05/24 06:56:59;;;;;;;15.93;10.02;;;14.40;99.90;;;;;;5058286;28;20029;-71
2022/05/24 07:02:27;;;;;;;22.08;12.15;;;14.30;99.90;;;;;;5061606;28;20603;-71
2022/05/24 07:05:00;;;;;;;14.88;9.57;;;14.40;99.90;;;;;;5059140;28;20398;-71
2022/05/24 07:07:26;;;;;;;14.10;9.90;;;14.40;99.90;;;;;;5057691;28;20131;-71
2022/05/24 07:09:52;;;;;;;15.32;10.85;;;14.40;99.90;;;;;;5056961;28;20037;-71
2022/05/24 07:12:22;;;;;;;18.15;10.70;;;14.50;99.90;;;;;;5058221;28;20040;-71
2022/05/24 07:14:48;;;;;;;21.73;11.07;;;14.40;99.90;;;;;;5060303;28;20045;-71
2022/05/24 07:17:16;;;;;;;19.50;10.43;;;14.50;99.90;;;;;;5041542;28;20045;-71
2022/05/24 07:19:42;;;;;;;17.13;9.18;;;14.50;99.90;;;;;;5061537;28;20044;-71
2022/05/24 07:22:08;;;;;;;16.50;9.75;;;14.50;99.90;;;;;;5059679;28;20063;-71
2022/05/24 07:24:34;;;;;;;19.38;11.43;;;14.50;99.90;;;;;;5060703;28;20335;-71
2022/05/24 07:27:00;;;;;;;15.07;9.85;;;14.50;99.90;;;;;;5048632;28;20043;-71
2022/05/24 07:29:26;;;;;;;15.05;9.80;;;14.50;99.90;;;;;;5054171;28;20055;-70
2022/05/24 07:31:52;;;;;;;13.82;10.10;;;14.50;99.90;;;;;;5095843;28;20044;-71
2022/05/24 07:34:18;;;;;;;15.55;10.10;;;14.50;99.90;;;;;;5058304;28;20040;-71
2022/05/24 07:36:43;;;;;;;13.75;9.52;;;14.50;99.90;;;;;;5060773;28;20040;-71
2022/05/24 07:39:10;;;;;;;14.35;10.20;;;14.50;99.90;;;;;;5060015;28;20035;-71
2022/05/24 07:47:06;;;;;;;13.35;9.38;;;14.50;99.90;;;;;;5061552;28;20201;-71
2022/05/24 07:49:33;;;;;;;13.63;10.52;;;14.60;99.90;;;;;;5059088;28;20493;-70
2022/05/24 07:51:59;;;;;;;18.45;11.20;;;14.50;99.90;;;;;;5057849;28;20041;-71
2022/05/24 07:54:24;;;;;;;17.25;10.27;;;14.50;99.90;;;;;;5059279;28;20041;-70
2022/05/24 07:56:50;;;;;;;16.85;9.95;;;14.60;99.90;;;;;;5060670;28;20086;-71
2022/05/24 07:59:17;;;;;;;23.52;11.73;;;14.60;99.90;;;;;;5095281;28;20033;-71
2022/05/24 08:01:42;;;;;;;14.88;9.63;;;14.60;99.90;;;;;;5055969;28;20037;-71
2022/05/24 08:04:09;;;;;;;19.70;10.18;;;14.60;99.90;;;;;;5056834;28;20059;-70
2022/05/24 08:06:35;;;;;;;15.05;8.80;;;14.60;99.90;;;;;;5055727;28;20122;-71
2022/05/24 08:09:01;;;;;;;16.42;9.60;;;14.60;99.90;;;;;;5059894;28;20509;-71
2022/05/24 08:11:26;;;;;;;18.40;9.18;;;14.70;99.90;;;;;;5059225;28;20036;-71
2022/05/24 08:13:52;;;;;;;15.65;10.15;;;14.70;99.90;;;;;;5055761;28;20039;-71
2022/05/24 08:16:17;;;;;;;17.67;11.35;;;14.70;99.90;;;;;;5061055;28;20398;-71
2022/05/24 08:18:44;;;;;;;15.82;10.88;;;14.80;99.90;;;;;;5057745;28;20129;-70
2022/05/24 08:21:10;;;;;;;16.05;9.30;;;14.80;99.90;;;;;;5059498;28;20043;-71
2022/05/24 08:23:35;;;;;;;18.33;9.77;;;15.10;99.90;;;;;;5059329;28;20394;-71
2022/05/24 08:26:01;;;;;;;12.27;9.38;;;15.40;99.90;;;;;;5059511;28;20036;-70
2022/05/24 08:28:27;;;;;;;11.25;8.15;;;15.60;99.90;;;;;;5057102;28;20028;-71
2022/05/24 08:30:54;;;;;;;11.98;7.97;;;15.80;99.90;;;;;;5059544;28;20091;-70
2022/05/24 08:33:21;;;;;;;10.70;7.95;;;16.00;99.90;;;;;;5059252;28;20064;-70
2022/05/24 08:35:47;;;;;;;13.73;7.32;;;16.20;99.90;;;;;;5064750;28;20045;-70
2022/05/24 08:38:13;;;;;;;10.30;6.80;;;16.40;99.90;;;;;;5058870;28;20047;-70
2022/05/24 08:40:42;;;;;;;13.40;6.28;;;16.40;99.90;;;;;;5057306;28;20552;-70
2022/05/24 08:43:26;;;;;;;10.05;5.65;;;16.40;99.90;;;;;;5057380;28;20040;-70
2022/05/24 08:48:41;;;;;;;14.35;3.65;;;16.70;99.90;;;;;;5065886;28;20073;-69
2022/05/24 08:51:31;;;;;;;14.57;4.32;;;16.80;99.90;;;;;;5062403;28;20048;-70
2022/05/24 08:54:11;;;;;;;8.50;3.28;;;17.10;99.90;;;;;;5069478;28;20036;-70
2022/05/24 08:56:58;;;;;;;7.53;2.70;;;17.00;99.90;;;;;;5061849;28;20063;-70
2022/05/24 08:59:32;;;;;;;10.15;2.80;;;16.70;99.90;;;;;;5063514;28;20119;-70
2022/05/24 09:01:59;;;;;;;4.93;2.30;;;16.70;99.90;;;;;;5059751;28;20037;-70
2022/05/24 09:04:26;;;;;;;7.10;2.47;;;16.80;99.90;;;;;;5061970;28;20043;-70
2022/05/24 09:06:51;;;;;;;7.50;2.28;;;17.00;99.90;;;;;;5060165;28;20166;-70
2022/05/24 09:09:35;;;;;;;6.90;2.30;;;17.00;99.90;;;;;;5058906;28;20116;-70
2022/05/24 09:12:26;;;;;;;8.00;2.97;;;16.90;99.90;;;;;;5057532;28;20045;-70
2022/05/24 09:15:09;;;;;;;13.32;2.40;;;17.00;99.90;;;;;;5063655;28;20037;-70
2022/05/24 09:17:48;;;;;;;6.03;1.92;;;17.30;99.90;;;;;;5066636;28;20032;-70
2022/05/24 09:20:33;;;;;;;5.63;2.58;;;17.40;99.90;;;;;;5062408;28;20045;-70
2022/05/24 09:23:09;;;;;;;6.30;2.70;;;17.30;99.90;;;;;;5061735;28;20059;-70
2022/05/24 09:25:34;;;;;;;9.30;2.67;;;17.10;99.90;;;;;;5059054;28;20097;-70
2022/05/24 09:28:00;;;;;;;5.45;2.83;;;16.90;99.90;;;;;;5057497;28;20032;-69
2022/05/24 09:30:40;;;;;;;7.15;3.10;;;16.70;99.90;;;;;;5060412;28;20376;-70
2022/05/24 09:33:25;;;;;;;14.82;3.80;;;16.40;99.90;;;;;;5063951;28;20131;-70
2022/05/24 09:35:57;;;;;;;12.85;3.92;;;16.00;99.90;;;;;;5060201;28;20048;-70
2022/05/24 09:38:32;;;;;;;9.00;3.60;;;15.80;99.90;;;;;;5064339;28;20350;-70
2022/05/24 09:41:02;;;;;;;9.57;3.33;;;15.60;99.90;;;;;;5060341;28;20093;-69
2022/05/24 09:43:34;;;;;;;5.63;3.25;;;15.50;99.90;;;;;;5094197;28;20037;-69
2022/05/24 09:46:20;;;;;;;5.90;2.33;;;15.60;99.90;;;;;;5060821;28;20045;-70
2022/05/24 09:48:59;;;;;;;6.03;1.70;;;15.60;99.90;;;;;;5063385;28;20421;-70
2022/05/24 09:51:30;;;;;;;16.30;2.50;;;15.70;99.90;;;;;;5057161;28;20107;-69
2022/05/24 09:53:56;;;;;;;5.95;2.70;;;15.90;99.90;;;;;;5068979;28;20048;-70
2022/05/24 09:56:29;;;;;;;4.47;3.47;;;16.00;99.90;;;;;;5060352;28;20055;-70
2022/05/24 09:59:20;;;;;;;9.30;4.15;;;16.00;99.90;;;;;;5061438;28;20032;-70
2022/05/24 10:01:49;;;;;;;6.40;3.67;;;16.00;99.90;;;;;;5058985;28;20477;-70
2022/05/24 10:04:35;;;;;;;6.45;3.80;;;15.90;99.90;;;;;;5058750;28;20036;-69
2022/05/24 10:07:08;;;;;;;4.77;3.53;;;15.90;99.90;;;;;;5057646;28;20029;-70
2022/05/24 10:09:45;;;;;;;5.65;3.50;;;16.00;99.90;;;;;;5063271;28;20298;-69
2022/05/24 10:12:29;;;;;;;8.55;2.88;;;16.30;99.90;;;;;;5058104;28;20041;-70
2022/05/24 10:15:21;;;;;;;8.85;2.10;;;16.80;99.90;;;;;;5061588;28;20093;-70
2022/05/24 10:17:53;;;;;;;10.63;1.30;;;17.40;99.90;;;;;;5063193;28;20037;-69
2022/05/24 10:20:32;;;;;;;5.70;1.70;;;17.40;99.90;;;;;;5055947;28;20051;-69
2022/05/24 10:23:28;;;;;;;3.70;0.32;;;17.40;99.90;;;;;;5058520;28;20427;-70
2022/05/24 10:26:11;;;;;;;13.40;0.85;;;17.10;99.90;;;;;;5067868;28;20036;-70
2022/05/24 10:28:49;;;;;;;7.30;0.30;;;16.50;99.90;;;;;;5060593;28;20044;-70
2022/05/24 10:31:49;;;;;;;4.68;0.20;;;15.80;99.90;;;;;;5059662;28;20048;-70
2022/05/24 10:40:34;;;;;;;4.35;0.75;;;14.50;99.90;;;;;;5094663;28;20502;-69
2022/05/24 10:43:34;;;;;;;1.10;0.32;;;14.50;99.90;;;;;;5061656;28;20482;-69
2022/05/24 10:46:07;;;;;;;1.67;0.40;;;14.50;99.90;;;;;;5059729;28;20025;-69
2022/05/24 10:48:45;;;;;;;4.88;0.98;;;14.50;99.90;;;;;;5059673;28;20471;-69
2022/05/24 10:51:25;;;;;;;7.82;1.45;;;14.40;99.90;;;;;;5059269;28;20056;-70
2022/05/24 10:54:01;;;;;;;3.72;0.65;;;14.30;99.90;;;;;;5059760;28;20045;-70
2022/05/24 10:56:37;;;;;;;1.27;0.40;;;14.50;99.90;;;;;;5091791;28;20033;-69
2022/05/24 10:59:34;;;;;;;2.33;0.50;;;14.60;99.90;;;;;;5059326;28;20494;-70
2022/05/24 11:02:12;;;;;;;2.88;0.45;;;14.60;99.90;;;;;;5058260;28;20075;-70
2022/05/24 11:05:01;;;;;;;4.47;0.70;;;14.60;99.90;;;;;;5056040;28;20115;-70
2022/05/24 11:07:28;;;;;;;3.80;0.88;;;14.50;99.90;;;;;;5054296;28;20078;-69
2022/05/24 11:10:07;;;;;;;2.08;0.85;;;14.50;99.90;;;;;;5055906;28;20048;-70
2022/05/24 11:12:40;;;;;;;5.18;1.25;;;14.60;99.90;;;;;;5055780;28;20045;-70
2022/05/24 11:15:16;;;;;;;3.53;1.33;;;14.70;99.90;;;;;;5088373;28;20300;-70
2022/05/24 11:17:41;;;;;;;4.95;1.35;;;14.70;99.90;;;;;;5054641;28;20139;-70
2022/05/24 11:20:09;;;;;;;3.55;1.50;;;14.80;99.90;;;;;;5058163;28;20041;-69
2022/05/24 11:22:46;;;;;;;3.05;1.20;;;14.70;99.90;;;;;;5054305;28;20047;-70
2022/05/24 11:25:30;;;;;;;8.27;1.30;;;14.80;99.90;;;;;;5071946;28;20075;-70
2022/05/24 11:28:03;;;;;;;2.90;0.93;;;14.80;99.90;;;;;;5061051;28;20051;-69
2022/05/24 11:30:34;;;;;;;3.97;0.80;;;14.70;99.90;;;;;;5054912;28;20225;-70
2022/05/24 11:33:03;;;;;;;1.92;0.80;;;14.70;99.90;;;;;;5055844;28;20044;-70
2022/05/24 11:35:35;;;;;;;1.30;0.60;;;14.60;99.90;;;;;;5053708;28;20126;-70
2022/05/24 11:38:22;;;;;;;5.13;2.25;;;14.60;99.90;;;;;;5052371;28;20183;-69
2022/05/24 11:40:48;;;;;;;3.08;0.85;;;14.60;99.90;;;;;;5045540;28;20151;-70
2022/05/24 11:43:35;;;;;;;4.97;0.60;;;14.60;99.90;;;;;;5039526;28;20139;-70
2022/05/24 11:46:04;;;;;;;4.55;0.70;;;14.80;99.90;;;;;;5052903;28;20048;-70
2022/05/24 11:48:52;;;;;;;1.45;0.40;;;15.00;99.90;;;;;;5055392;28;20037;-70
2022/05/24 11:51:41;;;;;;;2.97;0.90;;;15.10;99.90;;;;;;5055669;28;20044;-70
2022/05/24 11:54:30;;;;;;;1.15;0.45;;;15.20;99.90;;;;;;5054858;28;20124;-70
2022/05/24 11:57:01;;;;;;;1.75;0.65;;;15.20;99.90;;;;;;5059695;28;20149;-70
2022/05/24 11:59:48;;;;;;;2.17;1.00;;;15.30;99.90;;;;;;5055639;28;20040;-70
2022/05/24 12:02:19;;;;;;;4.88;1.08;;;15.30;99.90;;;;;;5055490;28;20532;-69
2022/05/24 12:08:26;;;;;;;1.58;0.60;;;15.20;99.90;;;;;;5054680;28;20042;-69
2022/05/24 12:11:14;;;;;;;2.97;1.00;;;15.40;99.90;;;;;;5074356;28;20076;-70
2022/05/24 12:13:45;;;;;;;5.13;0.68;;;15.50;99.90;;;;;;5050081;28;20094;-69
2022/05/24 12:16:32;;;;;;;1.80;0.60;;;15.60;99.90;;;;;;5072477;28;20041;-70
2022/05/24 12:19:01;;;;;;;4.93;0.43;;;15.60;99.90;;;;;;5059624;28;20072;-70
2022/05/24 12:21:50;;;;;;;1.90;0.52;;;16.10;99.90;;;;;;5058154;28;20040;-69
2022/05/24 12:24:42;;;;;;;2.28;0.50;;;16.40;99.90;;;;;;5056291;28;20044;-69
2022/05/24 12:27:27;;;;;;;4.38;0.90;;;16.80;99.90;;;;;;5045045;28;20068;-70
2022/05/24 12:29:57;;;;;;;2.60;0.50;;;17.10;99.90;;;;;;5057668;28;20524;-69
2022/05/24 12:32:25;;;;;;;2.78;0.43;;;17.10;99.90;;;;;;5056962;28;20048;-70
2022/05/24 12:34:51;;;;;;;2.00;0.60;;;17.00;99.90;;;;;;5057801;28;20102;-70
2022/05/24 12:37:19;;;;;;;1.10;0.20;;;16.80;99.90;;;;;;5060723;28;20170;-69
2022/05/24 12:40:24;;;;;;;1.45;0.30;;;16.50;99.90;;;;;;5058958;28;20040;-69
2022/05/24 12:42:56;;;;;;;2.55;0.40;;;16.20;99.90;;;;;;5061904;28;20055;-69
2022/05/24 12:45:32;;;;;;;1.17;0.20;;;15.90;99.90;;;;;;5058023;28;20035;-69
2022/05/24 12:47:58;;;;;;;2.88;0.20;;;15.90;99.90;;;;;;5059968;28;20077;-70
2022/05/24 12:50:38;;;;;;;1.13;0.20;;;15.80;99.90;;;;;;5047111;28;20053;-69
2022/05/24 12:53:08;;;;;;;3.58;0.30;;;15.90;99.90;;;;;;5059405;28;20033;-69
2022/05/24 12:58:34;;;;;;;1.48;0.30;;;15.70;99.90;;;;;;5057015;28;20048;-69
2022/05/24 13:01:29;;;;;;;3.58;0.43;;;15.70;99.90;;;;;;5091381;28;20095;-69
2022/05/24 13:04:19;;;;;;;1.73;0.50;;;15.70;99.90;;;;;;5052073;28;20595;-69
2022/05/24 13:06:46;;;;;;;1.52;0.30;;;15.60;99.90;;;;;;5057155;28;20093;-69
2022/05/24 13:09:14;;;;;;;3.05;0.88;;;15.70;99.90;;;;;;5057568;28;20049;-69
2022/05/24 13:11:41;;;;;;;3.03;0.82;;;15.70;99.90;;;;;;5058200;28;20056;-70
2022/05/24 13:14:11;;;;;;;1.63;0.52;;;15.80;99.90;;;;;;5061380;28;20049;-69
2022/05/24 13:16:39;;;;;;;1.90;0.77;;;15.90;99.90;;;;;;5057197;28;20395;-69
2022/05/24 13:19:05;;;;;;;3.70;0.50;;;16.10;99.90;;;;;;5057071;28;20063;-69
2022/05/24 13:21:32;;;;;;;2.15;0.40;;;16.20;99.90;;;;;;5074743;28;20471;-69
2022/05/24 13:24:09;;;;;;;1.63;0.85;;;16.30;99.90;;;;;;5056827;28;20036;-69
2022/05/24 13:26:34;;;;;;;4.00;0.82;;;16.40;99.90;;;;;;5057021;28;20041;-69
2022/05/24 13:29:20;;;;;;;1.75;0.73;;;16.40;99.90;;;;;;5057775;28;20490;-69
2022/05/24 13:34:33;;;;;;;5.13;0.88;;;16.50;99.90;;;;;;5090143;28;20072;-69
2022/05/24 13:37:07;;;;;;;4.65;1.90;;;16.50;99.90;;;;;;5060941;28;20032;-69
2022/05/24 13:39:39;;;;;;;4.38;1.10;;;16.50;99.90;;;;;;5089926;28;20068;-69
2022/05/24 13:42:20;;;;;;;2.17;0.98;;;16.60;99.90;;;;;;5091672;28;20514;-69